createdAt,value
2022-12-23T00:01:19.248Z,11.30
2022-12-23T00:05:20.375Z,11.80
2022-12-23T00:09:21.381Z,11.60
2022-12-23T00:13:40.875Z,11.30
2022-12-23T00:17:45.715Z,11.00
2022-12-23T00:21:48.041Z,11.00
2022-12-23T00:25:49.064Z,11.70
2022-12-23T00:29:50.205Z,12.20
2022-12-23T00:33:53.188Z,12.70
2022-12-23T00:37:54.202Z,12.50
2022-12-23T00:42:13.777Z,13.30
2022-12-23T00:46:15.025Z,13.20
2022-12-23T00:50:16.476Z,13.00
2022-12-23T00:54:18.296Z,13.10
2022-12-23T00:58:20.565Z,12.60
2022-12-23T01:02:40.145Z,12.50
2022-12-23T01:06:41.385Z,12.00
2022-12-23T01:10:42.557Z,12.50
2022-12-23T01:14:43.959Z,12.60
2022-12-23T01:18:45.240Z,12.40
2022-12-23T01:22:46.496Z,13.10
2022-12-23T01:26:47.739Z,13.10
2022-12-23T01:30:48.901Z,13.40
2022-12-23T01:34:50.030Z,13.10
2022-12-23T01:38:51.327Z,13.10
2022-12-23T01:42:52.391Z,13.30
2022-12-23T01:46:53.656Z,13.20
2022-12-23T01:51:01.700Z,11.60
2022-12-23T01:55:03.240Z,12.20
2022-12-23T01:59:18.248Z,13.00
2022-12-23T02:03:37.682Z,12.60
2022-12-23T02:07:58.481Z,12.00
2022-12-23T02:12:24.647Z,11.10
2022-12-23T02:16:28.038Z,11.80
2022-12-23T02:20:36.685Z,11.40
2022-12-23T02:24:56.381Z,11.20
2022-12-23T02:29:13.139Z,11.70
2022-12-23T02:33:20.807Z,12.20
2022-12-23T02:37:31.473Z,12.10
2022-12-23T02:41:39.398Z,11.30
2022-12-23T02:45:56.126Z,11.70
2022-12-23T02:50:01.040Z,12.30
2022-12-23T02:54:05.168Z,11.80
2022-12-23T02:58:10.422Z,11.40
2022-12-23T03:02:11.648Z,12.50
2022-12-23T03:06:16.472Z,11.70
2022-12-23T03:10:38.092Z,12.70
2022-12-23T03:14:48.832Z,12.70
2022-12-23T03:19:11.904Z,12.70
2022-12-23T03:23:23.054Z,13.00
2022-12-23T03:27:47.578Z,13.00
2022-12-23T03:31:51.121Z,12.70
2022-12-23T03:35:58.962Z,12.10
2022-12-23T03:40:06.702Z,13.20
2022-12-23T03:44:14.216Z,12.90
2022-12-23T03:48:24.870Z,13.20
2022-12-23T03:52:56.860Z,12.40
2022-12-23T03:57:01.816Z,11.80
2022-12-23T04:01:12.903Z,13.00
2022-12-23T04:05:29.404Z,12.50
2022-12-23T04:09:30.532Z,13.10
2022-12-23T04:13:32.042Z,12.50
2022-12-23T04:17:33.416Z,11.80
2022-12-23T04:21:34.394Z,11.40
2022-12-23T04:25:35.565Z,12.40
2022-12-23T04:29:36.455Z,12.50
2022-12-23T04:33:37.607Z,12.30
2022-12-23T04:37:38.715Z,12.00
2022-12-23T04:41:39.793Z,12.80
2022-12-23T04:45:42.089Z,12.60
2022-12-23T04:49:43.329Z,12.40
2022-12-23T04:53:44.362Z,11.70
2022-12-23T04:57:45.587Z,11.50
2022-12-23T05:01:46.672Z,11.50
2022-12-23T05:05:47.888Z,12.60
2022-12-23T05:09:48.995Z,11.80
2022-12-23T05:13:50.098Z,11.80
2022-12-23T05:17:51.068Z,11.60
2022-12-23T05:21:52.199Z,10.80
2022-12-23T05:25:53.908Z,10.30
2022-12-23T05:29:55.044Z,10.40
2022-12-23T05:33:58.439Z,10.80
2022-12-23T05:37:59.305Z,10.50
2022-12-23T05:42:00.399Z,10.10
2022-12-23T05:46:01.508Z,11.10
2022-12-23T05:50:03.589Z,11.50
2022-12-23T05:54:04.706Z,11.40
2022-12-23T05:58:05.771Z,11.50
2022-12-23T06:02:07.045Z,12.30
2022-12-23T06:06:08.432Z,12.10
2022-12-23T06:10:10.280Z,12.60
2022-12-23T06:14:11.312Z,11.90
2022-12-23T06:18:12.493Z,12.40
2022-12-23T06:22:14.545Z,12.60
2022-12-23T06:26:15.651Z,12.70
2022-12-23T06:30:16.669Z,12.80
2022-12-23T06:34:17.953Z,12.30
2022-12-23T06:38:19.185Z,12.50
2022-12-23T06:42:20.364Z,12.80
2022-12-23T06:46:21.534Z,12.60
2022-12-23T06:50:22.805Z,13.10
2022-12-23T06:54:24.058Z,13.60
2022-12-23T06:58:25.179Z,13.40
2022-12-23T07:02:26.380Z,13.50
2022-12-23T07:06:27.378Z,13.90
2022-12-23T07:10:28.662Z,13.50
2022-12-23T07:14:29.793Z,13.00
2022-12-23T07:18:30.904Z,13.50
2022-12-23T07:22:31.925Z,13.00
2022-12-23T07:26:33.161Z,12.50
2022-12-23T07:30:35.429Z,13.00
2022-12-23T07:34:36.491Z,13.30
2022-12-23T07:38:37.800Z,12.40
2022-12-23T07:42:46.959Z,12.70
2022-12-23T07:46:42.081Z,13.10
2022-12-23T07:50:43.292Z,13.50
2022-12-23T07:54:44.339Z,13.50
2022-12-23T07:58:50.047Z,13.60
2022-12-23T08:02:52.900Z,13.80
2022-12-23T08:06:57.055Z,13.30
2022-12-23T08:11:01.594Z,13.40
2022-12-23T08:15:05.649Z,13.20
2022-12-23T08:19:08.195Z,13.20
2022-12-23T08:23:11.167Z,13.70
2022-12-23T08:27:12.332Z,13.80
2022-12-23T08:31:22.423Z,13.40
2022-12-23T08:35:23.608Z,13.60
2022-12-23T08:39:24.697Z,13.10
2022-12-23T08:43:30.230Z,12.90
2022-12-23T08:47:29.116Z,13.10
2022-12-23T08:51:30.590Z,13.30
2022-12-23T08:55:37.575Z,13.60
2022-12-23T08:59:38.904Z,13.70
2022-12-23T09:03:41.823Z,14.10
2022-12-23T09:07:42.998Z,13.90
2022-12-23T09:11:44.272Z,13.80
2022-12-23T09:15:45.558Z,13.20
2022-12-23T09:19:52.521Z,12.40
2022-12-23T09:23:50.338Z,11.30
2022-12-23T09:27:51.596Z,12.20
2022-12-23T09:31:52.727Z,11.40
2022-12-23T09:35:57.690Z,11.80
2022-12-23T09:39:58.964Z,12.80
2022-12-23T09:44:23.538Z,12.70
2022-12-23T09:48:28.359Z,12.20
2022-12-23T09:52:51.541Z,13.00
2022-12-23T09:56:56.451Z,12.80
2022-12-23T10:01:16.773Z,13.30
2022-12-23T10:05:30.918Z,13.50
2022-12-23T10:09:35.707Z,14.10
2022-12-23T10:13:55.475Z,14.40
2022-12-23T10:18:00.374Z,14.80
2022-12-23T10:22:05.638Z,15.00
2022-12-23T10:26:25.451Z,14.80
2022-12-23T10:34:45.738Z,14.50
2022-12-23T10:39:17.736Z,14.60
2022-12-23T10:43:40.561Z,13.70
2022-12-23T10:47:51.629Z,13.50
2022-12-23T10:52:13.964Z,13.20
2022-12-23T10:56:15.562Z,13.30
2022-12-23T11:00:20.517Z,13.00
2022-12-23T11:04:28.611Z,13.20
2022-12-23T11:08:31.371Z,13.30
2022-12-23T11:12:44.056Z,12.80
2022-12-23T11:16:46.273Z,13.00
2022-12-23T11:21:05.482Z,12.60
2022-12-23T11:25:30.268Z,12.40
2022-12-23T11:29:41.078Z,13.10
2022-12-23T11:33:57.653Z,13.10
2022-12-23T11:38:01.028Z,13.40
2022-12-23T11:42:06.139Z,13.30
2022-12-23T11:46:25.388Z,13.50
2022-12-23T11:50:35.626Z,13.30
2022-12-23T11:54:38.350Z,12.90
2022-12-23T11:58:52.194Z,13.40
2022-12-23T12:02:56.329Z,13.10
2022-12-23T12:06:57.385Z,13.00
2022-12-23T12:11:08.572Z,13.50
2022-12-23T12:15:25.923Z,13.10
2022-12-23T12:19:34.146Z,13.00
2022-12-23T12:23:45.252Z,13.20
2022-12-23T12:27:53.045Z,12.80
2022-12-23T12:31:58.775Z,12.10
2022-12-23T12:36:05.628Z,11.90
2022-12-23T12:40:16.419Z,11.70
2022-12-23T12:44:30.026Z,11.90
2022-12-23T12:48:49.772Z,12.10
2022-12-23T12:52:53.518Z,12.20
2022-12-23T12:56:56.300Z,12.80
2022-12-23T13:01:13.070Z,11.60
2022-12-23T13:05:32.849Z,13.00
2022-12-23T13:09:52.715Z,12.90
2022-12-23T13:13:57.459Z,12.60
2022-12-23T13:18:05.487Z,11.40
2022-12-23T13:22:19.139Z,11.40
2022-12-23T13:26:35.985Z,11.50
2022-12-23T13:30:49.955Z,12.20
2022-12-23T13:35:00.391Z,11.60
2022-12-23T13:39:05.352Z,11.70
2022-12-23T13:43:13.228Z,11.90
2022-12-23T13:47:33.055Z,11.40
2022-12-23T13:51:46.589Z,12.20
2022-12-23T13:56:23.247Z,12.50
2022-12-23T14:00:30.476Z,12.50
2022-12-23T14:04:37.642Z,11.90
2022-12-23T14:08:42.691Z,12.40
2022-12-23T14:12:43.697Z,13.50
2022-12-23T14:16:54.224Z,12.90
2022-12-23T14:21:18.819Z,12.50
2022-12-23T14:25:27.122Z,12.40
2022-12-23T14:29:47.069Z,12.10
2022-12-23T14:33:48.571Z,11.90
2022-12-23T14:38:17.486Z,12.10
2022-12-23T14:42:42.125Z,11.80
2022-12-23T14:46:47.533Z,12.60
2022-12-23T14:51:01.723Z,12.90
2022-12-23T14:55:30.937Z,12.50
2022-12-23T14:59:46.184Z,13.00
2022-12-23T15:03:50.284Z,12.80
2022-12-23T15:07:55.181Z,12.30
2022-12-23T15:11:59.988Z,12.40
2022-12-23T15:16:02.210Z,12.80
2022-12-23T15:20:22.900Z,12.90
2022-12-23T15:24:24.155Z,12.40
2022-12-23T15:28:37.459Z,13.50
2022-12-23T15:32:41.608Z,12.90
2022-12-23T15:36:44.161Z,12.80
2022-12-23T15:40:58.652Z,13.50
2022-12-23T15:44:59.909Z,13.10
2022-12-23T15:49:01.586Z,12.90
2022-12-23T15:53:06.579Z,12.90
2022-12-23T15:57:09.693Z,12.80
2022-12-23T16:01:16.194Z,13.00
2022-12-23T16:05:30.458Z,13.20
2022-12-23T16:09:35.113Z,13.20
2022-12-23T16:13:40.237Z,12.80
2022-12-23T16:17:39.444Z,12.80
2022-12-23T16:21:40.693Z,12.90
2022-12-23T16:25:50.331Z,12.90
2022-12-23T16:29:50.750Z,12.60
2022-12-23T16:33:57.632Z,12.40
2022-12-23T16:38:08.333Z,12.70
2022-12-23T16:42:09.558Z,12.50
2022-12-23T16:46:14.568Z,12.40
2022-12-23T16:50:15.713Z,12.40
2022-12-23T16:54:19.573Z,12.80
2022-12-23T16:58:20.803Z,12.70
2022-12-23T17:02:24.129Z,12.40
2022-12-23T17:06:26.178Z,12.30
2022-12-23T17:10:27.509Z,12.10
2022-12-23T17:14:29.182Z,12.10
2022-12-23T17:18:30.104Z,12.60
2022-12-23T17:22:33.639Z,13.00
2022-12-23T17:26:34.653Z,12.80
2022-12-23T17:30:37.049Z,12.90
2022-12-23T17:34:38.291Z,12.30
2022-12-23T17:38:39.560Z,12.10
2022-12-23T17:42:41.828Z,12.40
2022-12-23T17:46:45.361Z,12.30
2022-12-23T17:50:47.081Z,12.50
2022-12-23T17:54:49.606Z,12.60
2022-12-23T17:58:51.040Z,12.80
2022-12-23T18:02:52.114Z,12.30
2022-12-23T18:06:53.934Z,12.10
2022-12-23T18:10:55.042Z,12.10
2022-12-23T18:14:56.347Z,12.20
2022-12-23T18:18:57.600Z,12.10
2022-12-23T18:22:59.441Z,12.40
2022-12-23T18:27:01.590Z,12.30
2022-12-23T18:31:02.803Z,11.90
2022-12-23T18:35:25.902Z,11.90
2022-12-23T18:39:27.048Z,12.10
2022-12-23T18:43:28.541Z,12.50
2022-12-23T18:47:31.121Z,12.00
2022-12-23T18:51:32.395Z,11.70
2022-12-23T18:55:33.841Z,11.60
2022-12-23T18:59:36.689Z,12.20
2022-12-23T19:03:37.806Z,11.60
2022-12-23T19:07:38.740Z,12.10
2022-12-23T19:11:39.923Z,11.80
2022-12-23T19:15:42.532Z,11.70
2022-12-23T19:19:44.344Z,11.50
2022-12-23T19:23:45.313Z,12.60
2022-12-23T19:27:47.186Z,11.60
2022-12-23T19:31:48.392Z,11.80
2022-12-23T19:35:49.562Z,11.70
2022-12-23T19:39:51.562Z,11.90
2022-12-23T19:43:52.646Z,12.50
2022-12-23T19:47:53.910Z,12.20
2022-12-23T19:51:54.866Z,12.30
2022-12-23T19:55:59.498Z,13.00
2022-12-23T20:00:02.003Z,12.00
2022-12-23T20:04:03.231Z,11.60
2022-12-23T20:08:04.809Z,12.20
2022-12-23T20:12:06.435Z,12.70
2022-12-23T20:16:09.680Z,12.10
2022-12-23T20:20:11.012Z,12.70
2022-12-23T20:24:13.374Z,12.10
2022-12-23T20:28:15.108Z,12.10
2022-12-23T20:32:16.595Z,12.30
2022-12-23T20:36:21.393Z,11.70
2022-12-23T20:40:22.638Z,11.40
2022-12-23T20:44:34.475Z,11.80
2022-12-23T20:48:33.438Z,11.90
2022-12-23T20:52:31.327Z,11.30
2022-12-23T20:56:32.357Z,12.20
2022-12-23T21:00:34.241Z,11.40
2022-12-23T21:04:35.476Z,11.20
2022-12-23T21:08:37.698Z,11.30
2022-12-23T21:12:38.945Z,11.30
2022-12-23T21:16:41.761Z,11.60
2022-12-23T21:20:42.911Z,11.20
2022-12-23T21:24:43.890Z,11.30
2022-12-23T21:28:46.271Z,11.10
2022-12-23T21:32:47.583Z,11.30
2022-12-23T21:36:48.832Z,11.30
2022-12-23T21:40:49.994Z,10.80
2022-12-23T21:44:56.601Z,11.10
2022-12-23T21:48:58.353Z,10.70
2022-12-23T21:52:59.538Z,10.50
2022-12-23T21:57:00.804Z,10.60
2022-12-23T22:01:09.834Z,10.80
2022-12-23T22:05:10.999Z,10.50
2022-12-23T22:09:15.606Z,10.50
2022-12-23T22:13:16.687Z,10.90
2022-12-23T22:17:17.867Z,10.80
2022-12-23T22:21:21.354Z,10.80
2022-12-23T22:25:22.610Z,10.60
2022-12-23T22:29:23.925Z,10.60
2022-12-23T22:33:24.892Z,11.20
2022-12-23T22:37:26.216Z,10.50
2022-12-23T22:41:29.358Z,10.70
2022-12-23T22:45:30.522Z,10.60
2022-12-23T22:49:31.810Z,10.60
2022-12-23T22:53:33.161Z,10.70
2022-12-23T22:57:34.514Z,10.80
2022-12-23T23:01:35.845Z,10.40
2022-12-23T23:05:37.108Z,10.50
2022-12-23T23:09:38.166Z,10.40
2022-12-23T23:13:39.260Z,10.30
2022-12-23T23:17:40.387Z,10.90
2022-12-23T23:21:41.657Z,10.30
2022-12-23T23:25:43.230Z,10.70
2022-12-23T23:29:44.219Z,10.60
2022-12-23T23:33:45.589Z,10.30
2022-12-23T23:37:46.839Z,10.50
2022-12-23T23:41:47.965Z,10.40
2022-12-23T23:45:49.731Z,10.30
2022-12-23T23:49:50.913Z,10.10
2022-12-23T23:53:51.939Z,10.70
2022-12-23T23:57:53.097Z,10.60
